createdAt,value
2023-07-03T00:00:28.223Z,45.51
2023-07-03T00:02:56.377Z,45.87
2023-07-03T00:05:25.271Z,45.71
2023-07-03T00:07:53.775Z,45.61
2023-07-03T00:10:22.927Z,46.10
2023-07-03T00:12:51.700Z,45.73
2023-07-03T00:15:20.305Z,45.86
2023-07-03T00:17:49.758Z,45.64
2023-07-03T00:20:18.274Z,45.76
2023-07-03T00:22:47.948Z,45.64
2023-07-03T00:25:16.459Z,45.52
2023-07-03T00:27:44.508Z,45.51
2023-07-03T00:30:13.645Z,45.70
2023-07-03T00:32:41.828Z,46.03
2023-07-03T00:35:11.652Z,45.41
2023-07-03T00:37:40.707Z,45.56
2023-07-03T00:40:11.955Z,46.10
2023-07-03T00:42:40.150Z,46.22
2023-07-03T00:45:11.052Z,46.47
2023-07-03T00:47:40.154Z,46.44
2023-07-03T00:50:09.141Z,46.43
2023-07-03T00:52:40.881Z,46.18
2023-07-03T00:55:12.687Z,46.44
2023-07-03T00:57:42.650Z,46.30
2023-07-03T01:00:11.669Z,46.71
2023-07-03T01:02:44.099Z,47.05
2023-07-03T01:05:18.444Z,46.60
2023-07-03T01:07:48.966Z,46.67
2023-07-03T01:10:20.464Z,46.66
2023-07-03T01:12:52.663Z,46.91
2023-07-03T01:15:24.500Z,46.54
2023-07-03T01:17:54.609Z,46.76
2023-07-03T01:20:25.318Z,46.57
2023-07-03T01:23:03.838Z,46.22
2023-07-03T01:25:35.458Z,46.37
2023-07-03T01:28:05.552Z,46.70
2023-07-03T01:30:35.035Z,46.86
2023-07-03T01:33:05.949Z,47.27
2023-07-03T01:35:34.758Z,46.93
2023-07-03T01:38:05.439Z,46.99
2023-07-03T01:40:36.481Z,46.61
2023-07-03T01:43:04.828Z,47.08
2023-07-03T01:45:36.087Z,46.86
2023-07-03T01:48:04.653Z,47.76
2023-07-03T01:50:34.149Z,47.85
2023-07-03T01:53:06.069Z,48.01
2023-07-03T01:55:42.354Z,47.94
2023-07-03T01:58:23.863Z,47.93
2023-07-03T02:00:54.678Z,48.21
2023-07-03T02:03:32.346Z,48.02
2023-07-03T02:06:04.392Z,48.50
2023-07-03T02:08:33.307Z,48.68
2023-07-03T02:11:03.191Z,49.07
2023-07-03T02:13:31.333Z,48.70
2023-07-03T02:16:00.983Z,48.66
2023-07-03T02:18:29.066Z,48.99
2023-07-03T02:20:57.148Z,49.00
2023-07-03T02:23:25.249Z,49.53
2023-07-03T02:25:53.624Z,49.54
2023-07-03T02:28:23.228Z,49.34
2023-07-03T02:30:51.650Z,49.50
2023-07-03T02:33:19.858Z,49.31
2023-07-03T02:35:47.925Z,49.95
2023-07-03T02:38:16.572Z,48.71
2023-07-03T02:40:44.768Z,47.99
2023-07-03T02:43:12.805Z,48.37
2023-07-03T02:45:44.828Z,48.62
2023-07-03T02:48:15.038Z,48.89
2023-07-03T02:50:47.009Z,48.01
2023-07-03T02:53:15.204Z,47.63
2023-07-03T02:55:44.324Z,47.53
2023-07-03T02:58:12.984Z,46.98
2023-07-03T03:00:41.163Z,46.84
2023-07-03T03:03:10.707Z,46.42
2023-07-03T03:05:38.816Z,46.29
2023-07-03T03:08:08.947Z,46.31
2023-07-03T03:10:37.205Z,46.09
2023-07-03T03:13:05.428Z,46.20
2023-07-03T03:15:36.880Z,46.06
2023-07-03T03:18:05.844Z,45.63
2023-07-03T03:20:35.297Z,45.54
2023-07-03T03:23:03.797Z,46.12
2023-07-03T03:25:31.917Z,46.52
2023-07-03T03:28:00.062Z,46.84
2023-07-03T03:30:28.258Z,47.73
2023-07-03T03:32:56.437Z,48.36
2023-07-03T03:35:24.587Z,48.29
2023-07-03T03:37:54.697Z,49.02
2023-07-03T03:40:22.828Z,50.41
2023-07-03T03:42:52.417Z,49.86
2023-07-03T03:45:20.627Z,50.01
2023-07-03T03:47:49.787Z,51.09
2023-07-03T03:50:18.659Z,50.79
2023-07-03T03:52:47.069Z,51.38
2023-07-03T03:55:17.342Z,50.77
2023-07-03T03:57:45.380Z,50.69
2023-07-03T04:00:18.355Z,50.69
2023-07-03T04:02:48.067Z,51.14
2023-07-03T04:05:16.480Z,50.17
2023-07-03T04:07:45.083Z,49.96
2023-07-03T04:10:13.225Z,49.30
2023-07-03T04:12:42.643Z,49.29
2023-07-03T04:15:11.106Z,50.13
2023-07-03T04:17:39.202Z,50.01
2023-07-03T04:20:12.306Z,49.58
2023-07-03T04:22:40.331Z,49.37
2023-07-03T04:25:09.198Z,49.25
2023-07-03T04:27:38.418Z,49.18
2023-07-03T04:30:09.379Z,49.16
2023-07-03T04:32:38.660Z,49.08
2023-07-03T04:35:07.856Z,48.92
2023-07-03T04:37:36.020Z,48.89
2023-07-03T04:40:06.001Z,49.19
2023-07-03T04:42:34.161Z,48.75
2023-07-03T04:45:03.488Z,48.78
2023-07-03T04:47:33.075Z,48.53
2023-07-03T04:50:01.220Z,48.73
2023-07-03T04:52:29.567Z,48.90
2023-07-03T04:54:57.600Z,48.86
2023-07-03T04:57:27.608Z,48.94
2023-07-03T04:59:56.205Z,48.57
2023-07-03T05:02:25.269Z,48.75
2023-07-03T05:04:55.211Z,47.98
2023-07-03T05:07:24.557Z,47.67
2023-07-03T05:09:52.740Z,47.97
2023-07-03T05:12:20.804Z,47.55
2023-07-03T05:14:48.855Z,47.61
2023-07-03T05:17:16.895Z,47.67
2023-07-03T05:19:44.932Z,47.52
2023-07-03T05:22:14.327Z,47.24
2023-07-03T05:24:42.455Z,47.23
2023-07-03T05:27:10.508Z,46.67
2023-07-03T05:29:38.553Z,46.06
2023-07-03T05:32:07.765Z,45.88
2023-07-03T05:34:39.089Z,46.22
2023-07-03T05:37:07.445Z,46.07
2023-07-03T05:39:38.533Z,45.64
2023-07-03T05:42:07.305Z,45.85
2023-07-03T05:44:35.359Z,45.64
2023-07-03T05:47:05.524Z,45.86
2023-07-03T05:49:35.787Z,45.41
2023-07-03T05:52:03.938Z,45.40
2023-07-03T05:54:32.129Z,45.38
2023-07-03T05:57:02.895Z,45.12
2023-07-03T05:59:30.954Z,45.20
2023-07-03T06:01:59.313Z,44.93
2023-07-03T06:04:27.879Z,44.82
2023-07-03T06:06:57.644Z,44.70
2023-07-03T06:09:26.643Z,44.30
2023-07-03T06:11:54.810Z,44.43
2023-07-03T06:14:26.016Z,44.35
2023-07-03T06:16:55.339Z,43.71
2023-07-03T06:19:23.514Z,43.77
2023-07-03T06:21:51.602Z,43.88
2023-07-03T06:24:19.893Z,43.93
2023-07-03T06:26:48.010Z,42.97
2023-07-03T06:29:16.494Z,43.04
2023-07-03T06:31:45.974Z,42.50
2023-07-03T06:34:14.074Z,42.57
2023-07-03T06:36:42.375Z,43.32
2023-07-03T06:39:11.380Z,43.49
2023-07-03T06:41:39.476Z,42.70
2023-07-03T06:44:15.075Z,41.34
2023-07-03T06:46:45.707Z,41.52
2023-07-03T06:49:15.797Z,42.46
2023-07-03T06:51:43.941Z,42.03
2023-07-03T06:54:12.000Z,42.17
2023-07-03T06:56:40.094Z,42.76
2023-07-03T06:59:08.116Z,42.86
2023-07-03T07:01:36.316Z,43.06
2023-07-03T07:04:06.108Z,43.25
2023-07-03T07:06:34.264Z,42.71
2023-07-03T07:09:04.693Z,42.83
2023-07-03T07:11:35.199Z,42.26
2023-07-03T07:14:06.259Z,42.24
2023-07-03T07:16:37.005Z,41.74
2023-07-03T07:19:08.258Z,42.74
2023-07-03T07:21:39.178Z,43.54
2023-07-03T07:24:15.481Z,42.76
2023-07-03T07:26:43.606Z,41.97
2023-07-03T07:29:12.093Z,40.60
2023-07-03T07:31:42.460Z,38.82
2023-07-03T07:34:13.580Z,39.20
2023-07-03T07:36:42.165Z,39.14
2023-07-03T07:39:10.915Z,39.68
2023-07-03T07:41:39.076Z,39.80
2023-07-03T07:44:07.815Z,38.99
2023-07-03T07:46:36.691Z,39.82
2023-07-03T07:49:05.194Z,41.42
2023-07-03T07:51:34.692Z,42.88
2023-07-03T07:54:04.435Z,44.61
2023-07-03T07:56:34.354Z,45.95
2023-07-03T07:59:02.785Z,47.67
2023-07-03T08:01:31.023Z,48.12
2023-07-03T08:03:59.234Z,50.68
2023-07-03T08:06:27.368Z,50.88
2023-07-03T08:08:56.888Z,52.18
2023-07-03T08:11:27.402Z,52.36
2023-07-03T08:13:55.547Z,52.85
2023-07-03T08:16:23.628Z,52.79
2023-07-03T08:18:51.823Z,52.75
2023-07-03T08:21:19.894Z,53.12
2023-07-03T08:23:47.939Z,53.46
2023-07-03T08:26:22.857Z,52.48
2023-07-03T08:28:51.040Z,52.27
2023-07-03T08:31:19.346Z,52.36
2023-07-03T08:33:47.587Z,51.91
2023-07-03T08:38:47.099Z,50.49
2023-07-03T08:41:16.109Z,50.57
2023-07-03T08:43:49.551Z,51.16
2023-07-03T08:46:21.707Z,50.98
2023-07-03T08:48:52.452Z,52.03
2023-07-03T08:51:24.312Z,52.07
2023-07-03T08:53:56.501Z,51.14
2023-07-03T08:56:27.178Z,51.74
2023-07-03T08:58:58.084Z,51.86
2023-07-03T09:01:33.496Z,51.93
2023-07-03T09:04:17.346Z,52.00
2023-07-03T09:06:51.889Z,51.75
2023-07-03T09:09:24.578Z,51.86
2023-07-03T09:11:58.513Z,51.04
2023-07-03T09:14:42.540Z,49.96
2023-07-03T09:17:11.906Z,49.63
2023-07-03T09:19:44.405Z,49.09
2023-07-03T09:22:21.614Z,49.50
2023-07-03T09:24:53.026Z,47.86
2023-07-03T09:27:24.223Z,45.90
2023-07-03T09:29:55.204Z,45.81
2023-07-03T09:32:28.121Z,44.35
2023-07-03T09:35:01.368Z,44.04
2023-07-03T09:37:29.966Z,43.18
2023-07-03T09:39:58.180Z,42.05
2023-07-03T09:42:27.985Z,41.91
2023-07-03T09:44:57.429Z,41.47
2023-07-03T09:47:30.193Z,43.14
2023-07-03T09:50:05.551Z,44.31
2023-07-03T09:52:33.727Z,45.20
2023-07-03T09:55:04.981Z,44.32
2023-07-03T09:57:35.807Z,44.49
2023-07-03T10:00:15.763Z,44.16
2023-07-03T10:07:49.325Z,48.34
2023-07-03T10:13:01.838Z,51.29
2023-07-03T10:15:34.552Z,52.57
2023-07-03T10:18:06.816Z,54.33
2023-07-03T10:20:38.097Z,54.79
2023-07-03T10:23:09.317Z,54.77
2023-07-03T10:25:40.847Z,53.94
2023-07-03T10:28:13.540Z,55.00
2023-07-03T10:30:43.443Z,51.53
2023-07-03T10:33:17.038Z,49.92
2023-07-03T10:35:45.801Z,48.32
2023-07-03T10:38:20.944Z,46.09
2023-07-03T10:40:57.864Z,47.51
2023-07-03T10:43:29.230Z,48.23
2023-07-03T10:46:00.130Z,46.44
2023-07-03T10:48:33.926Z,46.61
2023-07-03T10:51:11.616Z,45.96
2023-07-03T10:53:45.770Z,44.45
2023-07-03T10:56:20.601Z,45.38
2023-07-03T10:58:55.517Z,42.81
2023-07-03T11:01:31.670Z,44.77
2023-07-03T11:04:25.502Z,42.69
2023-07-03T11:07:04.367Z,40.28
2023-07-03T11:09:44.289Z,39.59
2023-07-03T11:12:21.232Z,40.28
2023-07-03T11:14:59.662Z,41.61
2023-07-03T11:17:37.515Z,41.26
2023-07-03T11:20:10.978Z,41.74
2023-07-03T11:22:48.191Z,41.60
2023-07-03T11:25:23.770Z,40.80
2023-07-03T11:27:58.719Z,41.29
2023-07-03T11:30:27.446Z,41.81
2023-07-03T11:33:01.077Z,41.89
2023-07-03T11:40:39.116Z,42.13
2023-07-03T11:43:34.593Z,43.32
2023-07-03T11:46:09.847Z,41.23
2023-07-03T11:48:47.466Z,40.46
2023-07-03T11:51:17.136Z,39.27
2023-07-03T11:53:49.051Z,38.36
2023-07-03T11:56:47.800Z,36.98
2023-07-03T11:59:26.429Z,34.48
2023-07-03T12:01:56.966Z,35.00
2023-07-03T12:04:52.788Z,36.57
2023-07-03T12:07:50.393Z,38.72
2023-07-03T12:10:42.724Z,39.77
2023-07-03T12:13:52.236Z,40.30
2023-07-03T12:16:22.877Z,39.63
2023-07-03T12:18:59.179Z,40.61
2023-07-03T12:21:36.293Z,40.66
2023-07-03T12:24:20.303Z,41.39
2023-07-03T12:26:56.312Z,41.88
2023-07-03T12:29:24.495Z,42.24
2023-07-03T12:32:06.508Z,42.03
2023-07-03T12:34:37.438Z,41.47
2023-07-03T12:37:10.411Z,40.70
2023-07-03T12:39:38.794Z,41.39
2023-07-03T12:42:09.094Z,40.62
2023-07-03T12:44:37.755Z,39.48
2023-07-03T12:47:10.075Z,38.08
2023-07-03T12:49:49.600Z,36.64
2023-07-03T12:52:19.057Z,35.70
2023-07-03T12:54:49.966Z,35.93
2023-07-03T12:57:19.119Z,36.02
2023-07-03T12:59:51.726Z,36.13
2023-07-03T13:02:22.938Z,35.76
2023-07-03T13:05:00.128Z,36.50
2023-07-03T13:07:30.718Z,36.67
2023-07-03T13:10:01.791Z,36.95
2023-07-03T13:12:30.518Z,37.15
2023-07-03T13:15:03.968Z,37.38
2023-07-03T13:17:32.778Z,37.78
2023-07-03T13:20:27.667Z,37.94
2023-07-03T13:23:00.659Z,38.11
2023-07-03T13:25:35.728Z,38.21
2023-07-03T13:28:06.996Z,38.36
2023-07-03T13:30:37.261Z,38.28
2023-07-03T13:33:07.857Z,38.17
2023-07-03T13:35:40.170Z,38.40
2023-07-03T13:38:28.631Z,38.46
2023-07-03T13:40:58.227Z,38.37
2023-07-03T13:43:27.574Z,38.66
2023-07-03T13:45:56.827Z,36.66
2023-07-03T13:48:28.128Z,35.18
2023-07-03T13:50:57.286Z,34.86
2023-07-03T13:53:28.663Z,35.06
2023-07-03T13:55:56.818Z,35.21
2023-07-03T13:58:25.001Z,34.82
2023-07-03T14:00:52.994Z,34.78
2023-07-03T14:03:21.464Z,35.02
2023-07-03T14:05:49.964Z,35.17
2023-07-03T14:08:18.404Z,35.44
2023-07-03T14:10:48.049Z,35.81
2023-07-03T14:13:16.170Z,36.40
2023-07-03T14:15:44.559Z,36.11
2023-07-03T14:18:13.729Z,36.18
2023-07-03T14:20:41.765Z,35.82
2023-07-03T14:23:09.951Z,36.03
2023-07-03T14:25:38.452Z,35.82
2023-07-03T14:28:08.589Z,35.53
2023-07-03T14:30:36.670Z,34.95
2023-07-03T14:33:04.917Z,35.23
2023-07-03T14:35:33.312Z,35.31
2023-07-03T14:38:01.410Z,35.74
2023-07-03T14:40:29.458Z,36.23
2023-07-03T14:42:57.497Z,35.76
2023-07-03T14:45:26.976Z,35.76
2023-07-03T14:47:55.005Z,35.94
2023-07-03T14:50:23.068Z,36.29
2023-07-03T14:52:51.427Z,35.96
2023-07-03T14:55:20.145Z,35.81
2023-07-03T14:57:48.235Z,36.47
2023-07-03T15:00:16.955Z,35.42
2023-07-03T15:02:49.760Z,35.06
2023-07-03T15:05:19.253Z,35.49
2023-07-03T15:07:49.961Z,35.31
2023-07-03T15:10:19.370Z,35.35
2023-07-03T15:12:47.426Z,35.74
2023-07-03T15:15:15.618Z,36.03
2023-07-03T15:17:43.686Z,35.11
2023-07-03T15:20:14.458Z,34.89
2023-07-03T15:22:42.508Z,34.94
2023-07-03T15:25:11.025Z,33.30
2023-07-03T15:27:39.046Z,33.60
2023-07-03T15:30:08.194Z,34.47
2023-07-03T15:32:36.244Z,35.59
2023-07-03T15:35:04.707Z,36.14
2023-07-03T15:37:34.109Z,36.34
2023-07-03T15:40:02.254Z,36.16
2023-07-03T15:42:30.275Z,36.78
2023-07-03T15:44:59.725Z,36.66
2023-07-03T15:47:28.372Z,35.90
2023-07-03T15:49:57.450Z,36.22
2023-07-03T15:52:25.755Z,35.50
2023-07-03T15:54:55.389Z,34.95
2023-07-03T15:57:23.626Z,35.44
2023-07-03T15:59:51.757Z,35.39
2023-07-03T16:02:19.870Z,35.48
2023-07-03T16:04:48.046Z,35.49
2023-07-03T16:07:16.309Z,35.78
2023-07-03T16:09:44.451Z,36.01
2023-07-03T16:12:15.678Z,36.18
2023-07-03T16:14:47.282Z,36.60
2023-07-03T16:17:15.713Z,36.59
2023-07-03T16:20:04.396Z,36.69
2023-07-03T16:22:32.454Z,36.84
2023-07-03T16:25:00.541Z,37.01
2023-07-03T16:27:30.008Z,37.27
2023-07-03T16:29:58.126Z,36.83
2023-07-03T16:32:26.363Z,37.21
2023-07-03T16:34:54.460Z,37.21
2023-07-03T16:37:22.606Z,37.06
2023-07-03T16:39:50.691Z,37.02
2023-07-03T16:42:18.827Z,37.26
2023-07-03T16:44:48.420Z,37.32
2023-07-03T16:47:16.731Z,37.60
2023-07-03T16:49:44.921Z,38.09
2023-07-03T16:52:13.006Z,38.47
2023-07-03T16:54:41.112Z,38.22
2023-07-03T16:57:09.117Z,38.40
2023-07-03T16:59:37.176Z,38.51
2023-07-03T17:02:06.774Z,38.81
2023-07-03T17:04:35.711Z,38.85
2023-07-03T17:07:03.944Z,39.26
2023-07-03T17:09:32.051Z,39.23
2023-07-03T17:12:00.124Z,39.54
2023-07-03T17:14:28.147Z,39.65
2023-07-03T17:16:56.218Z,39.72
2023-07-03T17:19:25.648Z,39.67
2023-07-03T17:21:53.748Z,39.88
2023-07-03T17:24:21.792Z,40.36
2023-07-03T17:26:49.866Z,40.55
2023-07-03T17:29:17.953Z,40.93
2023-07-03T17:31:45.992Z,41.24
2023-07-03T17:34:15.339Z,41.20
2023-07-03T17:36:44.760Z,41.16
2023-07-03T17:39:13.178Z,41.81
2023-07-03T17:41:44.247Z,41.29
2023-07-03T17:44:12.319Z,41.71
2023-07-03T17:46:41.243Z,41.36
2023-07-03T17:49:09.345Z,41.12
2023-07-03T17:51:37.593Z,40.81
2023-07-03T17:54:07.833Z,41.03
2023-07-03T17:56:36.640Z,41.05
2023-07-03T17:59:04.894Z,40.81
2023-07-03T18:01:33.075Z,40.58
2023-07-03T18:04:01.622Z,40.52
2023-07-03T18:06:30.051Z,41.10
2023-07-03T18:08:58.172Z,40.90
2023-07-03T18:11:27.591Z,40.83
2023-07-03T18:13:55.753Z,40.75
2023-07-03T18:16:24.150Z,40.90
2023-07-03T18:18:52.228Z,40.91
2023-07-03T18:21:20.325Z,40.95
2023-07-03T18:23:48.940Z,41.26
2023-07-03T18:26:17.195Z,41.38
2023-07-03T18:28:46.637Z,40.89
2023-07-03T18:31:14.867Z,41.25
2023-07-03T18:33:43.004Z,40.88
2023-07-03T18:36:11.363Z,40.45
2023-07-03T18:38:39.535Z,40.54
2023-07-03T18:41:08.146Z,40.04
2023-07-03T18:43:36.277Z,39.85
2023-07-03T18:46:08.296Z,39.53
2023-07-03T18:48:36.567Z,39.63
2023-07-03T18:51:04.801Z,39.19
2023-07-03T18:53:32.865Z,39.36
2023-07-03T18:56:01.184Z,38.71
2023-07-03T18:58:29.242Z,38.43
2023-07-03T19:00:57.381Z,38.58
2023-07-03T19:03:26.900Z,38.49
2023-07-03T19:05:57.490Z,38.58
2023-07-03T19:08:26.106Z,38.88
2023-07-03T19:10:54.208Z,39.14
2023-07-03T19:13:22.298Z,39.42
2023-07-03T19:15:50.547Z,39.37
2023-07-03T19:18:18.815Z,39.39
2023-07-03T19:20:48.288Z,39.14
2023-07-03T19:23:16.401Z,39.46
2023-07-03T19:25:44.903Z,39.33
2023-07-03T19:28:12.987Z,39.29
2023-07-03T19:30:41.041Z,39.78
2023-07-03T19:33:11.264Z,39.01
2023-07-03T19:35:39.354Z,38.94
2023-07-03T19:38:10.471Z,38.65
2023-07-03T19:40:39.695Z,39.17
2023-07-03T19:43:08.284Z,39.44
2023-07-03T19:45:37.146Z,39.64
2023-07-03T19:48:07.232Z,39.49
2023-07-03T19:50:37.091Z,39.85
2023-07-03T19:53:05.621Z,40.12
2023-07-03T19:55:36.070Z,40.34
2023-07-03T19:58:04.409Z,41.69
2023-07-03T20:00:32.653Z,42.36
2023-07-03T20:03:02.247Z,43.51
2023-07-03T20:05:30.812Z,44.75
2023-07-03T20:07:58.826Z,45.48
2023-07-03T20:10:26.978Z,46.52
2023-07-03T20:12:56.618Z,48.76
2023-07-03T20:15:24.810Z,49.82
2023-07-03T20:17:52.938Z,49.96
2023-07-03T20:20:21.074Z,50.36
2023-07-03T20:22:49.767Z,50.37
2023-07-03T20:25:17.894Z,51.34
2023-07-03T20:27:46.085Z,51.33
2023-07-03T20:30:15.807Z,51.21
2023-07-03T20:32:44.982Z,52.15
2023-07-03T20:35:13.336Z,52.12
2023-07-03T20:37:41.533Z,52.73
2023-07-03T20:40:10.456Z,53.23
2023-07-03T20:42:38.689Z,53.16
2023-07-03T20:45:08.212Z,53.51
2023-07-03T20:47:37.638Z,53.52
2023-07-03T20:50:06.525Z,53.48
2023-07-03T20:52:36.647Z,54.02
2023-07-03T20:55:23.494Z,54.18
2023-07-03T20:57:52.062Z,54.87
2023-07-03T21:00:21.641Z,55.50
2023-07-03T21:02:53.634Z,55.78
2023-07-03T21:05:22.589Z,56.37
2023-07-03T21:07:50.643Z,56.68
2023-07-03T21:10:18.854Z,56.94
2023-07-03T21:12:47.622Z,56.95
2023-07-03T21:15:15.892Z,57.28
2023-07-03T21:17:46.607Z,58.47
2023-07-03T21:20:16.363Z,58.76
2023-07-03T21:22:44.721Z,59.17
2023-07-03T21:25:12.769Z,58.99
2023-07-03T21:27:40.870Z,58.97
2023-07-03T21:30:10.291Z,58.83
2023-07-03T21:32:40.703Z,58.59
2023-07-03T21:35:09.648Z,57.63
2023-07-03T21:37:39.165Z,57.18
2023-07-03T21:40:10.434Z,57.38
2023-07-03T21:42:38.539Z,57.88
2023-07-03T21:45:07.719Z,58.59
2023-07-03T21:47:35.792Z,58.63
2023-07-03T21:50:04.834Z,57.56
2023-07-03T21:52:32.893Z,58.02
2023-07-03T21:55:02.313Z,57.45
2023-07-03T21:57:30.917Z,57.89
2023-07-03T21:59:58.997Z,57.80
2023-07-03T22:02:27.452Z,57.51
2023-07-03T22:04:55.619Z,57.99
2023-07-03T22:07:23.828Z,58.64
2023-07-03T22:09:52.337Z,58.64
2023-07-03T22:12:24.127Z,58.04
2023-07-03T22:14:52.268Z,57.92
2023-07-03T22:17:20.368Z,58.14
2023-07-03T22:19:50.780Z,57.74
2023-07-03T22:22:19.408Z,57.83
2023-07-03T22:24:47.426Z,57.78
2023-07-03T22:27:15.446Z,58.05
2023-07-03T22:29:44.876Z,57.48
2023-07-03T22:32:13.125Z,57.44
2023-07-03T22:34:41.190Z,57.77
2023-07-03T22:37:09.527Z,57.34
2023-07-03T22:39:38.238Z,57.73
2023-07-03T22:42:07.080Z,57.53
2023-07-03T22:44:35.126Z,58.05
2023-07-03T22:47:04.875Z,57.87
2023-07-03T22:49:32.998Z,58.51
2023-07-03T22:52:01.123Z,57.98
2023-07-03T22:54:29.296Z,57.71
2023-07-03T22:56:57.556Z,57.58
2023-07-03T22:59:25.662Z,57.59
2023-07-03T23:01:54.424Z,57.78
2023-07-03T23:04:23.973Z,57.90
2023-07-03T23:06:53.106Z,58.16
2023-07-03T23:09:21.953Z,58.08
2023-07-03T23:11:52.246Z,58.23
2023-07-03T23:14:20.306Z,58.15
2023-07-03T23:16:49.522Z,58.67
2023-07-03T23:19:17.994Z,58.78
2023-07-03T23:21:50.335Z,57.71
2023-07-03T23:24:19.447Z,58.65
2023-07-03T23:26:47.792Z,58.38
2023-07-03T23:29:15.907Z,59.08
2023-07-03T23:31:45.705Z,59.36
2023-07-03T23:34:14.416Z,58.91
2023-07-03T23:36:42.687Z,58.83
2023-07-03T23:39:13.068Z,59.28
2023-07-03T23:41:41.117Z,59.07
2023-07-03T23:44:09.224Z,58.80
2023-07-03T23:46:37.671Z,58.58
2023-07-03T23:49:05.950Z,58.99
2023-07-03T23:51:34.767Z,58.76
2023-07-03T23:54:02.840Z,58.93
2023-07-03T23:56:32.304Z,59.00
2023-07-03T23:59:01.252Z,58.96
